createdAt,value
2023-05-05T00:00:41.288Z,24.66
2023-05-05T00:01:41.337Z,24.65
2023-05-05T00:02:41.511Z,24.66
2023-05-05T00:03:41.579Z,24.66
2023-05-05T00:04:41.601Z,24.66
2023-05-05T00:05:41.676Z,24.66
2023-05-05T00:06:41.766Z,24.66
2023-05-05T00:07:41.856Z,24.65
2023-05-05T00:08:41.934Z,24.65
2023-05-05T00:09:42.024Z,24.65
2023-05-05T00:10:42.113Z,24.63
2023-05-05T00:11:42.190Z,24.65
2023-05-05T00:12:42.408Z,24.63
2023-05-05T00:13:42.369Z,24.65
2023-05-05T00:14:42.465Z,24.65
2023-05-05T00:15:42.568Z,24.66
2023-05-05T00:16:42.665Z,24.65
2023-05-05T00:17:42.737Z,24.68
2023-05-05T00:18:42.802Z,24.65
2023-05-05T00:19:42.894Z,24.65
2023-05-05T00:20:43.000Z,24.63
2023-05-05T00:21:43.055Z,24.63
2023-05-05T00:22:43.151Z,24.63
2023-05-05T00:23:43.305Z,24.65
2023-05-05T00:24:43.314Z,24.63
2023-05-05T00:25:43.416Z,24.63
2023-05-05T00:26:43.487Z,24.65
2023-05-05T00:27:43.658Z,24.60
2023-05-05T00:28:43.663Z,24.62
2023-05-05T00:29:43.748Z,24.63
2023-05-05T00:30:43.834Z,24.63
2023-05-05T00:31:43.972Z,24.62
2023-05-05T00:32:44.043Z,24.60
2023-05-05T00:33:44.089Z,24.62
2023-05-05T00:34:44.171Z,24.62
2023-05-05T00:35:44.305Z,24.62
2023-05-05T00:36:45.356Z,24.60
2023-05-05T00:37:44.426Z,24.60
2023-05-05T00:38:44.513Z,24.60
2023-05-05T00:39:44.602Z,24.60
2023-05-05T00:40:44.815Z,24.60
2023-05-05T00:41:44.764Z,24.60
2023-05-05T00:42:44.853Z,24.62
2023-05-05T00:43:44.932Z,24.59
2023-05-05T00:44:45.034Z,24.60
2023-05-05T00:45:45.095Z,24.59
2023-05-05T00:46:45.224Z,24.59
2023-05-05T00:47:45.283Z,24.60
2023-05-05T00:48:45.350Z,24.58
2023-05-05T00:49:45.482Z,24.59
2023-05-05T00:50:45.515Z,24.58
2023-05-05T00:51:45.615Z,24.59
2023-05-05T00:52:45.690Z,24.59
2023-05-05T00:53:45.762Z,24.59
2023-05-05T00:54:45.872Z,24.60
2023-05-05T00:55:46.001Z,24.56
2023-05-05T00:56:46.807Z,24.59
2023-05-05T00:57:46.131Z,24.60
2023-05-05T00:58:46.202Z,24.59
2023-05-05T00:59:46.323Z,24.59
2023-05-05T01:00:46.372Z,24.59
2023-05-05T01:01:46.533Z,24.58
2023-05-05T01:02:46.749Z,24.58
2023-05-05T01:03:46.685Z,24.58
2023-05-05T01:04:46.705Z,24.58
2023-05-05T01:05:46.793Z,24.59
2023-05-05T01:06:46.889Z,24.55
2023-05-05T01:07:46.972Z,24.56
2023-05-05T01:08:47.050Z,24.54
2023-05-05T01:09:47.142Z,24.58
2023-05-05T01:10:47.226Z,24.54
2023-05-05T01:11:47.378Z,24.56
2023-05-05T01:12:47.464Z,24.56
2023-05-05T01:13:47.557Z,24.55
2023-05-05T01:14:47.669Z,24.56
2023-05-05T01:15:47.684Z,24.55
2023-05-05T01:16:47.773Z,24.56
2023-05-05T01:17:47.912Z,24.55
2023-05-05T01:18:47.953Z,24.55
2023-05-05T01:19:48.036Z,24.55
2023-05-05T01:20:48.147Z,24.54
2023-05-05T01:21:48.234Z,24.55
2023-05-05T01:22:48.331Z,24.54
2023-05-05T01:23:48.470Z,24.54
2023-05-05T01:24:48.508Z,24.54
2023-05-05T01:25:48.593Z,24.54
2023-05-05T01:26:48.686Z,24.54
2023-05-05T01:27:48.772Z,24.55
2023-05-05T01:28:48.870Z,24.51
2023-05-05T01:29:48.975Z,24.54
2023-05-05T01:30:49.053Z,24.52
2023-05-05T01:31:49.185Z,24.51
2023-05-05T01:32:49.263Z,24.51
2023-05-05T01:33:49.311Z,24.52
2023-05-05T01:34:49.392Z,24.54
2023-05-05T01:35:49.490Z,24.51
2023-05-05T01:36:49.564Z,24.52
2023-05-05T01:37:49.661Z,24.52
2023-05-05T01:38:49.725Z,24.52
2023-05-05T01:39:49.844Z,24.54
2023-05-05T01:40:49.908Z,24.49
2023-05-05T01:41:49.988Z,24.52
2023-05-05T01:42:50.079Z,24.52
2023-05-05T01:43:50.158Z,24.51
2023-05-05T01:44:50.249Z,24.52
2023-05-05T01:45:50.438Z,24.51
2023-05-05T01:46:50.436Z,24.51
2023-05-05T01:47:50.534Z,24.52
2023-05-05T01:48:50.629Z,24.52
2023-05-05T01:49:50.731Z,24.51
2023-05-05T01:50:50.814Z,24.49
2023-05-05T01:51:50.910Z,24.52
2023-05-05T01:52:51.340Z,24.49
2023-05-05T01:53:51.087Z,24.51
2023-05-05T01:54:51.179Z,24.49
2023-05-05T01:55:51.259Z,24.51
2023-05-05T01:56:51.835Z,24.49
2023-05-05T01:57:51.442Z,24.51
2023-05-05T01:58:51.543Z,24.49
2023-05-05T01:59:51.640Z,24.52
2023-05-05T02:00:51.755Z,24.51
2023-05-05T02:01:51.903Z,24.48
2023-05-05T02:02:51.952Z,24.48
2023-05-05T02:03:51.985Z,24.49
2023-05-05T02:04:52.071Z,24.48
2023-05-05T02:05:52.169Z,24.49
2023-05-05T02:06:52.231Z,24.47
2023-05-05T02:07:52.328Z,24.48
2023-05-05T02:08:52.378Z,24.47
2023-05-05T02:09:52.452Z,24.48
2023-05-05T02:10:52.527Z,24.48
2023-05-05T02:11:52.704Z,24.47
2023-05-05T02:12:52.791Z,24.48
2023-05-05T02:13:52.795Z,24.49
2023-05-05T02:14:52.868Z,24.45
2023-05-05T02:15:53.011Z,24.47
2023-05-05T02:16:53.099Z,24.47
2023-05-05T02:17:53.219Z,24.47
2023-05-05T02:18:53.176Z,24.49
2023-05-05T02:19:53.289Z,24.49
2023-05-05T02:20:53.371Z,24.48
2023-05-05T02:21:53.452Z,24.49
2023-05-05T02:22:53.518Z,24.47
2023-05-05T02:23:53.610Z,24.49
2023-05-05T02:24:53.660Z,24.48
2023-05-05T02:25:53.773Z,24.51
2023-05-05T02:26:53.846Z,24.48
2023-05-05T02:27:53.954Z,24.48
2023-05-05T02:28:54.040Z,24.48
2023-05-05T02:29:54.111Z,24.49
2023-05-05T02:30:56.889Z,24.47
2023-05-05T02:31:54.234Z,24.49
2023-05-05T02:32:54.335Z,24.49
2023-05-05T02:33:54.280Z,24.47
2023-05-05T02:34:54.309Z,24.49
2023-05-05T02:35:54.330Z,24.48
2023-05-05T02:36:54.357Z,24.48
2023-05-05T02:37:54.379Z,24.48
2023-05-05T02:38:54.412Z,24.48
2023-05-05T02:39:54.414Z,24.49
2023-05-05T02:40:54.455Z,24.49
2023-05-05T02:41:54.530Z,24.52
2023-05-05T02:42:54.577Z,24.48
2023-05-05T02:43:54.523Z,24.47
2023-05-05T02:44:54.549Z,24.48
2023-05-05T02:45:54.568Z,24.48
2023-05-05T02:46:54.728Z,24.47
2023-05-05T02:47:54.639Z,24.49
2023-05-05T02:48:54.623Z,24.48
2023-05-05T02:49:54.643Z,24.47
2023-05-05T02:50:54.669Z,24.48
2023-05-05T02:51:54.709Z,24.47
2023-05-05T02:52:54.709Z,24.47
2023-05-05T02:53:54.739Z,24.47
2023-05-05T02:54:54.831Z,24.47
2023-05-05T02:55:54.773Z,24.48
2023-05-05T02:56:54.795Z,24.47
2023-05-05T02:57:54.808Z,24.49
2023-05-05T02:58:54.824Z,24.45
2023-05-05T02:59:54.844Z,24.47
2023-05-05T03:00:54.930Z,24.47
2023-05-05T03:01:54.933Z,24.47
2023-05-05T03:02:55.005Z,24.47
2023-05-05T03:03:54.975Z,24.47
2023-05-05T03:04:54.987Z,24.43
2023-05-05T03:05:54.965Z,24.47
2023-05-05T03:06:55.007Z,24.45
2023-05-05T03:07:55.373Z,24.47
2023-05-05T03:08:55.040Z,24.47
2023-05-05T03:09:55.051Z,24.47
2023-05-05T03:10:55.085Z,24.45
2023-05-05T03:11:55.105Z,24.45
2023-05-05T03:12:55.184Z,24.43
2023-05-05T03:13:55.172Z,24.43
2023-05-05T03:14:55.882Z,24.45
2023-05-05T03:15:55.354Z,24.45
2023-05-05T03:16:55.406Z,24.45
2023-05-05T03:17:55.578Z,24.45
2023-05-05T03:18:55.520Z,24.43
2023-05-05T03:19:55.611Z,24.42
2023-05-05T03:20:55.715Z,24.43
2023-05-05T03:21:55.790Z,24.43
2023-05-05T03:22:56.867Z,24.43
2023-05-05T03:23:55.965Z,24.43
2023-05-05T03:24:56.025Z,24.43
2023-05-05T03:25:56.086Z,24.43
2023-05-05T03:26:56.165Z,24.43
2023-05-05T03:27:56.238Z,24.42
2023-05-05T03:28:56.304Z,24.43
2023-05-05T03:29:56.471Z,24.42
2023-05-05T03:30:56.473Z,24.42
2023-05-05T03:31:56.567Z,24.39
2023-05-05T03:32:56.629Z,24.42
2023-05-05T03:33:56.645Z,24.42
2023-05-05T03:34:56.789Z,24.42
2023-05-05T03:35:56.828Z,24.41
2023-05-05T03:36:56.826Z,24.41
2023-05-05T03:37:56.914Z,24.41
2023-05-05T03:38:56.968Z,24.41
2023-05-05T03:39:57.032Z,24.41
2023-05-05T03:40:57.106Z,24.41
2023-05-05T03:41:57.169Z,24.41
2023-05-05T03:42:57.226Z,24.41
2023-05-05T03:43:57.300Z,24.41
2023-05-05T03:44:57.366Z,24.39
2023-05-05T03:45:57.494Z,24.42
2023-05-05T03:46:57.631Z,24.38
2023-05-05T03:47:57.639Z,24.39
2023-05-05T03:48:57.718Z,24.41
2023-05-05T03:49:57.795Z,24.39
2023-05-05T03:50:57.844Z,24.41
2023-05-05T03:51:57.895Z,24.38
2023-05-05T03:52:57.963Z,24.36
2023-05-05T03:53:57.991Z,24.39
2023-05-05T03:54:58.025Z,24.36
2023-05-05T03:55:58.064Z,24.39
2023-05-05T03:56:58.113Z,24.36
2023-05-05T03:57:58.168Z,24.36
2023-05-05T03:58:58.237Z,24.38
2023-05-05T03:59:58.277Z,24.38
2023-05-05T04:00:58.330Z,24.38
2023-05-05T04:01:58.355Z,24.35
2023-05-05T04:02:58.469Z,24.38
2023-05-05T04:03:58.404Z,24.36
2023-05-05T04:04:58.416Z,24.36
2023-05-05T04:05:58.435Z,24.36
2023-05-05T04:06:58.486Z,24.36
2023-05-05T04:07:58.498Z,24.36
2023-05-05T04:08:58.517Z,24.38
2023-05-05T04:09:58.564Z,24.36
2023-05-05T04:10:58.923Z,24.34
2023-05-05T04:11:58.618Z,24.35
2023-05-05T04:12:58.698Z,24.35
2023-05-05T04:13:58.676Z,24.35
2023-05-05T04:14:58.707Z,24.38
2023-05-05T04:15:58.738Z,24.36
2023-05-05T04:16:58.745Z,24.32
2023-05-05T04:17:58.842Z,24.36
2023-05-05T04:18:58.792Z,24.35
2023-05-05T04:19:58.825Z,24.35
2023-05-05T04:20:58.852Z,24.34
2023-05-05T04:21:58.851Z,24.35
2023-05-05T04:22:58.885Z,24.32
2023-05-05T04:23:58.961Z,24.34
2023-05-05T04:24:58.937Z,24.34
2023-05-05T04:25:59.002Z,24.32
2023-05-05T04:26:59.016Z,24.32
2023-05-05T04:27:59.061Z,24.32
2023-05-05T04:28:59.100Z,24.32
2023-05-05T04:29:59.152Z,24.34
2023-05-05T04:30:59.180Z,24.31
2023-05-05T04:31:59.194Z,24.30
2023-05-05T04:32:59.249Z,24.32
2023-05-05T04:33:59.250Z,24.31
2023-05-05T04:34:59.290Z,24.31
2023-05-05T04:35:59.318Z,24.32
2023-05-05T04:36:59.350Z,24.31
2023-05-05T04:37:59.367Z,24.31
2023-05-05T04:38:59.494Z,24.31
2023-05-05T04:39:59.408Z,24.30
2023-05-05T04:40:59.456Z,24.31
2023-05-05T04:41:59.456Z,24.30
2023-05-05T04:42:59.500Z,24.30
2023-05-05T04:43:59.527Z,24.30
2023-05-05T04:44:59.618Z,24.31
2023-05-05T04:45:59.579Z,24.30
2023-05-05T04:46:59.607Z,24.28
2023-05-05T04:47:59.762Z,24.28
2023-05-05T04:48:59.661Z,24.30
2023-05-05T04:49:59.694Z,24.30
2023-05-05T04:50:59.729Z,24.30
2023-05-05T04:51:59.763Z,24.30
2023-05-05T04:52:59.869Z,24.30
2023-05-05T04:53:59.851Z,24.32
2023-05-05T04:54:59.926Z,24.28
2023-05-05T04:55:59.881Z,24.28
2023-05-05T04:56:59.905Z,24.30
2023-05-05T04:57:59.955Z,24.27
2023-05-05T04:58:59.969Z,24.27
2023-05-05T04:59:59.983Z,24.28
2023-05-05T05:01:00.005Z,24.27
2023-05-05T05:02:00.085Z,24.27
2023-05-05T05:03:00.150Z,24.25
2023-05-05T05:04:00.340Z,24.27
2023-05-05T05:05:00.160Z,24.27
2023-05-05T05:06:00.150Z,24.28
2023-05-05T05:07:00.170Z,24.27
2023-05-05T05:08:00.203Z,24.30
2023-05-05T05:09:00.225Z,24.28
2023-05-05T05:10:00.260Z,24.25
2023-05-05T05:11:00.292Z,24.28
2023-05-05T05:12:00.314Z,24.25
2023-05-05T05:13:00.373Z,24.27
2023-05-05T05:14:00.361Z,24.28
2023-05-05T05:15:00.512Z,24.25
2023-05-05T05:16:00.551Z,24.27
2023-05-05T05:17:00.468Z,24.27
2023-05-05T05:18:00.521Z,24.27
2023-05-05T05:19:01.798Z,24.22
2023-05-05T05:20:01.559Z,24.17
2023-05-05T05:21:00.596Z,24.14
2023-05-05T05:22:00.668Z,24.11
2023-05-05T05:23:00.654Z,24.11
2023-05-05T05:24:00.892Z,24.07
2023-05-05T05:25:00.697Z,24.03
2023-05-05T05:26:00.733Z,23.97
2023-05-05T05:27:00.761Z,23.93
2023-05-05T05:28:09.448Z,23.60
2023-05-05T05:29:01.824Z,23.62
2023-05-05T05:30:01.139Z,23.60
2023-05-05T05:31:00.886Z,23.56
2023-05-05T05:32:01.093Z,23.62
2023-05-05T05:33:00.961Z,23.46
2023-05-05T05:34:01.198Z,23.42
2023-05-05T05:35:01.024Z,22.88
2023-05-05T05:36:01.073Z,22.86
2023-05-05T05:37:01.183Z,22.77
2023-05-05T05:38:01.177Z,22.63
2023-05-05T05:39:01.209Z,22.30
2023-05-05T05:40:01.265Z,22.22
2023-05-05T05:41:01.319Z,22.24
2023-05-05T05:42:01.445Z,22.20
2023-05-05T05:43:01.586Z,22.20
2023-05-05T05:44:01.683Z,22.02
2023-05-05T05:45:01.795Z,21.81
2023-05-05T05:46:01.947Z,21.71
2023-05-05T05:47:02.002Z,21.78
2023-05-05T05:48:02.156Z,21.34
2023-05-05T05:49:02.242Z,21.31
2023-05-05T05:50:02.309Z,21.43
2023-05-05T05:51:02.423Z,21.41
2023-05-05T05:52:02.519Z,21.48
2023-05-05T05:53:02.618Z,21.36
2023-05-05T05:54:02.717Z,21.41
2023-05-05T05:55:02.823Z,21.53
2023-05-05T05:56:03.851Z,21.66
2023-05-05T05:57:03.030Z,21.72
2023-05-05T05:58:03.105Z,21.88
2023-05-05T05:59:03.190Z,21.99
2023-05-05T06:00:03.281Z,22.09
2023-05-05T06:01:03.372Z,21.92
2023-05-05T06:02:03.484Z,21.71
2023-05-05T06:03:03.581Z,21.54
2023-05-05T06:04:03.744Z,21.61
2023-05-05T06:05:04.447Z,21.72
2023-05-05T06:06:03.841Z,21.53
2023-05-05T06:07:03.946Z,21.40
2023-05-05T06:08:04.055Z,21.22
2023-05-05T06:09:04.177Z,21.22
2023-05-05T06:10:18.676Z,21.03
2023-05-05T06:11:05.324Z,21.11
2023-05-05T06:12:04.355Z,21.07
2023-05-05T06:13:04.447Z,21.26
2023-05-05T06:14:04.454Z,21.37
2023-05-05T06:15:04.504Z,21.45
2023-05-05T06:16:04.571Z,21.57
2023-05-05T06:17:04.613Z,21.65
2023-05-05T06:18:04.783Z,21.71
2023-05-05T06:19:04.709Z,21.68
2023-05-05T06:20:04.819Z,21.50
2023-05-05T06:21:04.912Z,21.54
2023-05-05T06:22:05.020Z,21.34
2023-05-05T06:23:05.152Z,21.29
2023-05-05T06:24:05.274Z,21.13
2023-05-05T06:25:07.929Z,21.03
2023-05-05T06:26:05.643Z,21.22
2023-05-05T06:27:05.764Z,21.37
2023-05-05T06:28:05.942Z,21.48
2023-05-05T06:29:05.951Z,21.61
2023-05-05T06:30:06.191Z,21.75
2023-05-05T06:31:06.103Z,21.87
2023-05-05T06:32:06.142Z,21.96
2023-05-05T06:33:06.278Z,22.11
2023-05-05T06:34:06.350Z,22.16
2023-05-05T06:35:06.421Z,22.30
2023-05-05T06:36:06.496Z,22.33
2023-05-05T06:37:06.698Z,22.44
2023-05-05T06:38:06.659Z,22.50
2023-05-05T06:39:06.642Z,22.59
2023-05-05T06:40:06.931Z,22.63
2023-05-05T06:41:07.467Z,22.68
2023-05-05T06:42:06.748Z,22.75
2023-05-05T06:43:06.789Z,22.77
2023-05-05T06:44:06.867Z,22.83
2023-05-05T06:45:06.945Z,22.88
2023-05-05T06:46:07.001Z,22.94
2023-05-05T06:47:07.161Z,22.98
2023-05-05T06:48:07.264Z,22.99
2023-05-05T06:49:08.026Z,23.02
2023-05-05T06:50:07.542Z,23.07
2023-05-05T06:51:07.415Z,23.14
2023-05-05T06:52:07.485Z,23.19
2023-05-05T06:53:07.545Z,23.23
2023-05-05T06:54:07.630Z,23.28
2023-05-05T06:55:07.708Z,23.35
2023-05-05T06:56:07.774Z,23.36
2023-05-05T06:57:07.848Z,23.45
2023-05-05T06:58:07.905Z,23.46
2023-05-05T06:59:07.965Z,23.52
2023-05-05T07:00:08.319Z,23.57
2023-05-05T07:01:08.234Z,23.60
2023-05-05T07:02:08.166Z,23.67
2023-05-05T07:03:08.249Z,23.70
2023-05-05T07:04:08.361Z,23.72
2023-05-05T07:05:08.328Z,23.79
2023-05-05T07:06:08.378Z,23.81
2023-05-05T07:07:08.446Z,23.88
2023-05-05T07:08:08.465Z,23.88
2023-05-05T07:09:08.532Z,23.94
2023-05-05T07:10:08.753Z,23.97
2023-05-05T07:11:08.603Z,24.01
2023-05-05T07:12:08.903Z,24.04
2023-05-05T07:13:08.702Z,24.05
2023-05-05T07:14:08.727Z,24.11
2023-05-05T07:15:23.475Z,24.11
2023-05-05T07:16:09.796Z,24.17
2023-05-05T07:17:08.899Z,24.21
2023-05-05T07:18:08.895Z,24.22
2023-05-05T07:19:08.993Z,24.24
2023-05-05T07:20:09.132Z,24.25
2023-05-05T07:21:08.836Z,24.25
2023-05-05T07:22:08.847Z,24.20
2023-05-05T07:23:08.849Z,24.17
2023-05-05T07:24:08.870Z,24.14
2023-05-05T07:25:08.877Z,24.10
2023-05-05T07:26:08.897Z,24.08
2023-05-05T07:27:08.923Z,24.04
2023-05-05T07:28:08.933Z,24.05
2023-05-05T07:29:08.912Z,24.04
2023-05-05T07:30:13.018Z,24.04
2023-05-05T07:31:09.970Z,24.05
2023-05-05T07:32:09.039Z,24.08
2023-05-05T07:33:09.058Z,24.07
2023-05-05T07:34:08.973Z,24.10
2023-05-05T07:35:09.024Z,24.07
2023-05-05T07:36:08.969Z,24.08
2023-05-05T07:37:09.898Z,24.08
2023-05-05T07:38:10.894Z,24.08
2023-05-05T07:39:08.996Z,24.08
2023-05-05T07:40:09.359Z,24.11
2023-05-05T07:41:09.013Z,24.11
2023-05-05T07:42:09.012Z,24.11
2023-05-05T07:43:09.015Z,24.12
2023-05-05T07:44:09.014Z,24.14
2023-05-05T07:45:09.023Z,24.18
2023-05-05T07:46:09.265Z,24.14
2023-05-05T07:47:09.014Z,24.17
2023-05-05T07:48:09.129Z,24.20
2023-05-05T07:49:09.139Z,24.20
2023-05-05T07:50:09.350Z,24.22
2023-05-05T07:51:09.017Z,24.27
2023-05-05T07:52:09.031Z,24.31
2023-05-05T07:53:14.496Z,24.34
2023-05-05T07:54:11.032Z,24.35
2023-05-05T07:55:09.015Z,24.38
2023-05-05T07:56:09.103Z,24.36
2023-05-05T07:57:09.035Z,24.36
2023-05-05T07:58:09.062Z,24.36
2023-05-05T07:59:09.036Z,24.36
2023-05-05T08:00:11.996Z,24.36
2023-05-05T08:01:09.037Z,24.36
2023-05-05T08:02:09.034Z,24.38
2023-05-05T08:03:11.688Z,24.38
2023-05-05T08:04:09.638Z,24.41
2023-05-05T08:05:09.822Z,24.42
2023-05-05T08:06:09.054Z,24.45
2023-05-05T08:07:09.051Z,24.47
2023-05-05T08:08:09.086Z,24.51
2023-05-05T08:09:09.051Z,24.48
2023-05-05T08:10:09.055Z,24.49
2023-05-05T08:11:09.070Z,24.55
2023-05-05T08:12:09.047Z,24.59
2023-05-05T08:13:09.081Z,24.59
2023-05-05T08:14:09.064Z,24.63
2023-05-05T08:15:09.354Z,24.68
2023-05-05T08:16:09.172Z,24.70
2023-05-05T08:17:09.110Z,24.73
2023-05-05T08:18:09.114Z,24.75
2023-05-05T08:19:21.173Z,24.70
2023-05-05T08:20:11.018Z,24.72
2023-05-05T08:21:10.007Z,24.69
2023-05-05T08:22:09.172Z,24.66
2023-05-05T08:23:09.189Z,24.63
2023-05-05T08:24:09.208Z,24.62
2023-05-05T08:25:09.337Z,24.59
2023-05-05T08:26:09.233Z,24.55
2023-05-05T08:27:09.237Z,24.51
2023-05-05T08:28:09.269Z,24.49
2023-05-05T08:29:09.496Z,24.49
2023-05-05T08:30:09.274Z,24.45
2023-05-05T08:31:09.330Z,24.41
2023-05-05T08:32:09.314Z,24.38
2023-05-05T08:33:09.344Z,24.39
2023-05-05T08:34:09.334Z,24.38
2023-05-05T08:35:09.531Z,24.34
2023-05-05T08:36:09.401Z,24.34
2023-05-05T08:37:09.360Z,24.34
2023-05-05T08:38:12.009Z,24.32
2023-05-05T08:39:10.427Z,24.31
2023-05-05T08:40:09.678Z,24.31
2023-05-05T08:41:10.516Z,24.30
2023-05-05T08:42:09.712Z,24.31
2023-05-05T08:43:09.753Z,24.27
2023-05-05T08:44:09.761Z,24.28
2023-05-05T08:45:10.689Z,24.25
2023-05-05T08:46:09.827Z,24.25
2023-05-05T08:47:09.999Z,24.24
2023-05-05T08:48:09.913Z,24.21
2023-05-05T08:49:09.938Z,24.22
2023-05-05T08:50:09.984Z,24.21
2023-05-05T08:51:10.037Z,24.21
2023-05-05T08:52:10.208Z,24.17
2023-05-05T08:53:10.103Z,24.18
2023-05-05T08:54:10.202Z,24.15
2023-05-05T08:55:10.230Z,24.14
2023-05-05T08:56:11.076Z,24.14
2023-05-05T08:57:10.273Z,24.12
2023-05-05T08:58:10.332Z,24.10
2023-05-05T08:59:10.367Z,24.10
2023-05-05T09:00:10.409Z,24.08
2023-05-05T09:01:10.484Z,24.07
2023-05-05T09:02:10.550Z,24.10
2023-05-05T09:03:10.673Z,24.04
2023-05-05T09:04:10.596Z,24.05
2023-05-05T09:05:10.683Z,24.05
2023-05-05T09:06:10.704Z,24.04
2023-05-05T09:07:10.718Z,24.04
2023-05-05T09:08:10.948Z,24.03
2023-05-05T09:09:10.813Z,24.03
2023-05-05T09:10:10.862Z,24.01
2023-05-05T09:11:10.915Z,24.01
2023-05-05T09:12:11.037Z,24.03
2023-05-05T09:13:11.042Z,24.00
2023-05-05T09:14:11.057Z,24.01
2023-05-05T09:15:11.124Z,23.99
2023-05-05T09:16:11.262Z,24.00
2023-05-05T09:17:11.238Z,23.99
2023-05-05T09:18:11.365Z,24.03
2023-05-05T09:19:11.398Z,24.04
2023-05-05T09:20:11.417Z,24.08
2023-05-05T09:21:11.494Z,24.11
2023-05-05T09:22:11.607Z,24.08
2023-05-05T09:23:11.627Z,24.05
2023-05-05T09:24:11.855Z,24.07
2023-05-05T09:25:11.733Z,24.07
2023-05-05T09:26:11.725Z,24.07
2023-05-05T09:27:11.728Z,24.05
2023-05-05T09:28:11.747Z,24.03
2023-05-05T09:29:11.758Z,24.05
2023-05-05T09:30:11.756Z,24.03
2023-05-05T09:31:11.822Z,24.04
2023-05-05T09:32:11.763Z,24.01
2023-05-05T09:33:11.805Z,24.05
2023-05-05T09:34:11.777Z,24.07
2023-05-05T09:35:11.852Z,24.10
2023-05-05T09:36:11.759Z,24.08
2023-05-05T09:37:12.577Z,24.08
2023-05-05T09:38:11.798Z,24.07
2023-05-05T09:39:11.802Z,24.07
2023-05-05T09:40:12.019Z,24.08
2023-05-05T09:41:11.800Z,24.07
2023-05-05T09:42:11.784Z,24.10
2023-05-05T09:43:11.831Z,24.04
2023-05-05T09:44:11.794Z,24.05
2023-05-05T09:45:11.807Z,24.10
2023-05-05T09:46:12.533Z,24.10
2023-05-05T09:47:26.081Z,24.10
2023-05-05T09:48:13.968Z,24.11
2023-05-05T09:49:11.852Z,24.08
2023-05-05T09:50:12.820Z,24.12
2023-05-05T09:51:11.816Z,24.14
2023-05-05T09:52:12.525Z,24.17
2023-05-05T09:53:11.833Z,24.18
2023-05-05T09:54:12.527Z,24.17
2023-05-05T09:55:11.839Z,24.20
2023-05-05T09:56:12.044Z,24.17
2023-05-05T09:57:11.854Z,24.20
2023-05-05T09:58:11.894Z,24.18
2023-05-05T09:59:11.919Z,24.17
2023-05-05T10:00:12.131Z,24.17
2023-05-05T10:01:11.992Z,24.14
2023-05-05T10:02:11.957Z,24.15
2023-05-05T10:03:11.856Z,24.17
2023-05-05T10:04:11.862Z,24.14
2023-05-05T10:05:11.882Z,24.21
2023-05-05T10:06:11.873Z,24.20
2023-05-05T10:07:11.867Z,24.18
2023-05-05T10:08:11.881Z,24.22
2023-05-05T10:09:11.879Z,24.28
2023-05-05T10:10:12.046Z,24.27
2023-05-05T10:11:11.881Z,24.30
2023-05-05T10:12:12.043Z,24.35
2023-05-05T10:13:12.009Z,24.35
2023-05-05T10:14:12.530Z,24.36
2023-05-05T10:15:11.917Z,24.41
2023-05-05T10:16:12.544Z,24.45
2023-05-05T10:17:12.453Z,24.49
2023-05-05T10:18:12.581Z,24.49
2023-05-05T10:19:11.936Z,24.45
2023-05-05T10:20:11.951Z,24.36
2023-05-05T10:21:12.540Z,24.34
2023-05-05T10:22:11.982Z,24.35
2023-05-05T10:23:11.981Z,24.31
2023-05-05T10:24:11.976Z,24.28
2023-05-05T10:25:12.083Z,24.27
2023-05-05T10:26:12.074Z,24.25
2023-05-05T10:27:12.715Z,24.25
2023-05-05T10:28:12.272Z,24.28
2023-05-05T10:29:12.324Z,24.27
2023-05-05T10:30:12.289Z,24.28
2023-05-05T10:31:24.576Z,24.30
2023-05-05T10:32:37.123Z,24.34
2023-05-05T10:33:30.167Z,24.32
2023-05-05T10:34:13.499Z,24.38
2023-05-05T10:35:12.305Z,24.36
2023-05-05T10:36:12.317Z,24.39
2023-05-05T10:37:12.286Z,24.43
2023-05-05T10:38:13.297Z,24.45
2023-05-05T10:39:13.044Z,24.45
2023-05-05T10:40:12.290Z,24.49
2023-05-05T10:41:12.260Z,24.51
2023-05-05T10:42:12.242Z,24.54
2023-05-05T10:43:12.552Z,24.56
2023-05-05T10:44:12.254Z,24.58
2023-05-05T10:45:12.225Z,24.60
2023-05-05T10:46:12.223Z,24.66
2023-05-05T10:47:12.188Z,24.66
2023-05-05T10:48:12.237Z,24.69
2023-05-05T10:49:13.249Z,24.69
2023-05-05T10:50:12.177Z,24.73
2023-05-05T10:51:12.147Z,24.73
2023-05-05T10:52:12.143Z,24.75
2023-05-05T10:53:12.118Z,24.78
2023-05-05T10:54:12.133Z,24.78
2023-05-05T10:55:12.093Z,24.76
2023-05-05T10:56:13.053Z,24.79
2023-05-05T10:57:12.057Z,24.82
2023-05-05T10:58:12.052Z,24.80
2023-05-05T10:59:12.999Z,24.85
2023-05-05T11:00:14.578Z,24.87
2023-05-05T11:01:12.027Z,24.93
2023-05-05T11:02:12.059Z,24.93
2023-05-05T11:03:12.059Z,24.96
2023-05-05T11:04:11.963Z,25.00
2023-05-05T11:05:11.958Z,25.02
2023-05-05T11:06:11.921Z,24.99
2023-05-05T11:07:14.690Z,24.97
2023-05-05T11:08:11.893Z,24.94
2023-05-05T11:09:11.882Z,24.93
2023-05-05T11:10:12.012Z,24.90
2023-05-05T11:11:11.859Z,24.96
2023-05-05T11:12:11.856Z,24.89
2023-05-05T11:13:11.940Z,24.87
2023-05-05T11:14:11.822Z,24.86
2023-05-05T11:15:11.838Z,24.86
2023-05-05T11:16:11.848Z,24.86
2023-05-05T11:17:11.823Z,24.83
2023-05-05T11:18:11.860Z,24.82
2023-05-05T11:19:11.810Z,24.80
2023-05-05T11:20:11.801Z,24.80
2023-05-05T11:21:11.793Z,24.82
2023-05-05T11:22:11.866Z,24.79
2023-05-05T11:23:12.588Z,24.80
2023-05-05T11:24:11.787Z,24.78
2023-05-05T11:25:11.792Z,24.78
2023-05-05T11:26:12.780Z,24.78
2023-05-05T11:27:11.772Z,24.76
2023-05-05T11:28:11.898Z,24.76
2023-05-05T11:29:12.617Z,24.75
2023-05-05T11:30:11.855Z,24.78
2023-05-05T11:31:11.780Z,24.73
2023-05-05T11:32:11.813Z,24.75
2023-05-05T11:33:11.743Z,24.70
2023-05-05T11:34:11.752Z,24.75
2023-05-05T11:35:11.836Z,24.72
2023-05-05T11:36:11.764Z,24.72
2023-05-05T11:37:11.789Z,24.73
2023-05-05T11:38:12.107Z,24.72
2023-05-05T11:39:11.934Z,24.73
2023-05-05T11:40:12.063Z,24.73
2023-05-05T11:41:12.021Z,24.73
2023-05-05T11:42:12.069Z,24.73
2023-05-05T11:43:12.119Z,24.72
2023-05-05T11:44:12.193Z,24.72
2023-05-05T11:45:12.242Z,24.75
2023-05-05T11:46:12.373Z,24.73
2023-05-05T11:47:12.336Z,24.72
2023-05-05T11:48:12.518Z,24.73
2023-05-05T11:49:12.442Z,24.75
2023-05-05T11:50:12.506Z,24.73
2023-05-05T11:51:12.552Z,24.73
2023-05-05T11:52:12.626Z,24.72
2023-05-05T11:53:12.659Z,24.75
2023-05-05T11:54:12.719Z,24.72
2023-05-05T11:55:12.773Z,24.73
2023-05-05T11:56:12.837Z,24.73
2023-05-05T11:57:12.885Z,24.73
2023-05-05T11:58:12.926Z,24.75
2023-05-05T11:59:12.969Z,24.76
2023-05-05T12:00:13.077Z,24.75
2023-05-05T12:01:13.061Z,24.75
2023-05-05T12:02:13.098Z,24.75
2023-05-05T12:03:13.179Z,24.76
2023-05-05T12:04:13.349Z,24.78
2023-05-05T12:05:13.226Z,24.76
2023-05-05T12:06:13.260Z,24.78
2023-05-05T12:07:13.306Z,24.78
2023-05-05T12:08:13.343Z,24.80
2023-05-05T12:09:13.382Z,24.79
2023-05-05T12:10:13.422Z,24.80
2023-05-05T12:11:13.450Z,24.79
2023-05-05T12:12:13.498Z,24.83
2023-05-05T12:13:13.576Z,24.80
2023-05-05T12:14:13.563Z,24.82
2023-05-05T12:15:14.582Z,24.80
2023-05-05T12:16:13.662Z,24.80
2023-05-05T12:17:13.661Z,24.83
2023-05-05T12:18:13.750Z,24.83
2023-05-05T12:19:13.728Z,24.83
2023-05-05T12:20:13.976Z,24.85
2023-05-05T12:21:13.803Z,24.86
2023-05-05T12:22:13.831Z,24.85
2023-05-05T12:23:13.853Z,24.87
2023-05-05T12:24:13.871Z,24.86
2023-05-05T12:25:13.906Z,24.87
2023-05-05T12:26:13.925Z,24.87
2023-05-05T12:27:13.954Z,24.86
2023-05-05T12:28:13.993Z,24.87
2023-05-05T12:29:14.008Z,24.90
2023-05-05T12:30:14.045Z,24.90
2023-05-05T12:31:14.237Z,24.89
2023-05-05T12:32:14.302Z,24.87
2023-05-05T12:33:14.087Z,24.87
2023-05-05T12:34:14.176Z,24.89
2023-05-05T12:35:14.127Z,24.89
2023-05-05T12:36:14.250Z,24.87
2023-05-05T12:37:14.159Z,24.90
2023-05-05T12:38:14.183Z,24.90
2023-05-05T12:39:14.197Z,24.90
2023-05-05T12:40:14.215Z,24.91
2023-05-05T12:41:14.239Z,24.90
2023-05-05T12:42:14.243Z,24.91
2023-05-05T12:43:14.262Z,24.93
2023-05-05T12:44:14.275Z,24.91
2023-05-05T12:45:14.301Z,24.93
2023-05-05T12:46:14.365Z,24.93
2023-05-05T12:47:14.327Z,24.96
2023-05-05T12:48:14.333Z,24.93
2023-05-05T12:49:14.349Z,24.93
2023-05-05T12:50:14.355Z,24.93
2023-05-05T12:51:14.369Z,24.96
2023-05-05T12:52:14.459Z,24.97
2023-05-05T12:53:14.373Z,24.97